sensor_id;sensor_type;location;lat;lon;timestamp;pressure;altitude;pressure_sealevel;temperature;humidity
60642;BME280;46837;52.446;-1.930;2023-02-11T00:00:09;102076.59;;;9.29;82.07
60642;BME280;46837;52.446;-1.930;2023-02-11T00:01:15;102078.77;;;9.32;81.98
60642;BME280;46837;52.446;-1.930;2023-02-11T00:02:09;102079.15;;;9.35;81.89
60642;BME280;46837;52.446;-1.930;2023-02-11T00:03:09;102081.06;;;9.36;81.77
60642;BME280;46837;52.446;-1.930;2023-02-11T00:04:09;102080.12;;;9.36;81.83
60642;BME280;46837;52.446;-1.930;2023-02-11T00:05:09;102078.46;;;9.37;81.79
60642;BME280;46837;52.446;-1.930;2023-02-11T00:06:09;102080.79;;;9.38;81.75
60642;BME280;46837;52.446;-1.930;2023-02-11T00:07:09;102079.74;;;9.40;81.70
60642;BME280;46837;52.446;-1.930;2023-02-11T00:08:09;102079.47;;;9.42;81.56
60642;BME280;46837;52.446;-1.930;2023-02-11T00:09:09;102079.63;;;9.43;81.49
60642;BME280;46837;52.446;-1.930;2023-02-11T00:10:10;102076.31;;;9.43;81.47
60642;BME280;46837;52.446;-1.930;2023-02-11T00:11:11;102077.72;;;9.38;81.71
60642;BME280;46837;52.446;-1.930;2023-02-11T00:12:09;102079.75;;;9.39;81.89
60642;BME280;46837;52.446;-1.930;2023-02-11T00:13:09;102079.02;;;9.39;81.77
60642;BME280;46837;52.446;-1.930;2023-02-11T00:14:10;102078.62;;;9.34;81.78
60642;BME280;46837;52.446;-1.930;2023-02-11T00:15:09;102076.78;;;9.30;81.97
60642;BME280;46837;52.446;-1.930;2023-02-11T00:16:09;102076.47;;;9.29;82.05
60642;BME280;46837;52.446;-1.930;2023-02-11T00:17:09;102077.14;;;9.27;82.08
60642;BME280;46837;52.446;-1.930;2023-02-11T00:18:09;102076.58;;;9.26;82.09
60642;BME280;46837;52.446;-1.930;2023-02-11T00:19:09;102074.66;;;9.26;82.13
60642;BME280;46837;52.446;-1.930;2023-02-11T00:20:09;102072.54;;;9.25;82.11
60642;BME280;46837;52.446;-1.930;2023-02-11T00:21:16;102069.47;;;9.26;82.10
60642;BME280;46837;52.446;-1.930;2023-02-11T00:22:09;102064.49;;;9.24;82.15
60642;BME280;46837;52.446;-1.930;2023-02-11T00:23:09;102065.90;;;9.22;82.33
60642;BME280;46837;52.446;-1.930;2023-02-11T00:24:09;102062.78;;;9.24;82.24
60642;BME280;46837;52.446;-1.930;2023-02-11T00:25:09;102061.41;;;9.26;82.12
60642;BME280;46837;52.446;-1.930;2023-02-11T00:26:13;102057.80;;;9.26;82.08
60642;BME280;46837;52.446;-1.930;2023-02-11T00:27:09;102056.02;;;9.28;82.04
60642;BME280;46837;52.446;-1.930;2023-02-11T00:28:09;102050.36;;;9.26;82.00
60642;BME280;46837;52.446;-1.930;2023-02-11T00:29:09;102053.80;;;9.29;81.98
60642;BME280;46837;52.446;-1.930;2023-02-11T00:30:09;102047.47;;;9.28;81.93
60642;BME280;46837;52.446;-1.930;2023-02-11T00:31:09;102045.34;;;9.28;81.97
60642;BME280;46837;52.446;-1.930;2023-02-11T00:32:09;102048.11;;;9.22;82.17
60642;BME280;46837;52.446;-1.930;2023-02-11T00:33:09;102045.96;;;9.23;82.21
60642;BME280;46837;52.446;-1.930;2023-02-11T00:34:09;102045.11;;;9.24;82.09
60642;BME280;46837;52.446;-1.930;2023-02-11T00:35:09;102047.84;;;9.24;82.16
60642;BME280;46837;52.446;-1.930;2023-02-11T00:37:09;102047.67;;;9.25;82.15
60642;BME280;46837;52.446;-1.930;2023-02-11T00:38:09;102049.00;;;9.27;82.01
60642;BME280;46837;52.446;-1.930;2023-02-11T00:39:09;102046.23;;;9.29;81.97
60642;BME280;46837;52.446;-1.930;2023-02-11T00:40:09;102046.97;;;9.32;81.90
60642;BME280;46837;52.446;-1.930;2023-02-11T00:41:09;102049.61;;;9.34;81.74
60642;BME280;46837;52.446;-1.930;2023-02-11T00:42:10;102049.03;;;9.28;81.88
60642;BME280;46837;52.446;-1.930;2023-02-11T00:43:09;102050.03;;;9.26;82.02
60642;BME280;46837;52.446;-1.930;2023-02-11T00:44:09;102046.05;;;9.27;82.04
60642;BME280;46837;52.446;-1.930;2023-02-11T00:45:10;102044.32;;;9.27;82.03
60642;BME280;46837;52.446;-1.930;2023-02-11T00:46:09;102043.70;;;9.29;81.96
60642;BME280;46837;52.446;-1.930;2023-02-11T00:47:09;102042.40;;;9.31;81.92
60642;BME280;46837;52.446;-1.930;2023-02-11T00:48:09;102041.13;;;9.31;81.92
60642;BME280;46837;52.446;-1.930;2023-02-11T00:49:09;102043.20;;;9.33;81.88
60642;BME280;46837;52.446;-1.930;2023-02-11T00:50:09;102044.06;;;9.33;81.78
60642;BME280;46837;52.446;-1.930;2023-02-11T00:51:09;102041.79;;;9.31;81.84
60642;BME280;46837;52.446;-1.930;2023-02-11T00:52:09;102041.15;;;9.30;81.89
60642;BME280;46837;52.446;-1.930;2023-02-11T00:53:09;102039.33;;;9.28;81.98
60642;BME280;46837;52.446;-1.930;2023-02-11T00:54:09;102040.99;;;9.30;81.95
60642;BME280;46837;52.446;-1.930;2023-02-11T00:55:09;102036.29;;;9.29;81.86
60642;BME280;46837;52.446;-1.930;2023-02-11T00:56:09;102035.67;;;9.26;81.96
60642;BME280;46837;52.446;-1.930;2023-02-11T00:57:09;102039.83;;;9.27;81.98
60642;BME280;46837;52.446;-1.930;2023-02-11T00:58:09;102039.72;;;9.26;81.91
60642;BME280;46837;52.446;-1.930;2023-02-11T00:59:09;102038.19;;;9.27;81.91
60642;BME280;46837;52.446;-1.930;2023-02-11T01:00:10;102042.05;;;9.26;81.91
60642;BME280;46837;52.446;-1.930;2023-02-11T01:01:09;102042.45;;;9.27;81.93
60642;BME280;46837;52.446;-1.930;2023-02-11T01:02:09;102045.01;;;9.28;81.88
60642;BME280;46837;52.446;-1.930;2023-02-11T01:03:09;102043.81;;;9.26;81.82
60642;BME280;46837;52.446;-1.930;2023-02-11T01:04:09;102043.90;;;9.25;81.92
60642;BME280;46837;52.446;-1.930;2023-02-11T01:05:09;102044.95;;;9.27;81.92
60642;BME280;46837;52.446;-1.930;2023-02-11T01:06:09;102048.15;;;9.22;81.90
60642;BME280;46837;52.446;-1.930;2023-02-11T01:07:09;102045.24;;;9.23;82.01
60642;BME280;46837;52.446;-1.930;2023-02-11T01:08:09;102043.58;;;9.21;82.00
60642;BME280;46837;52.446;-1.930;2023-02-11T01:09:09;102043.97;;;9.19;82.06
60642;BME280;46837;52.446;-1.930;2023-02-11T01:10:09;102044.11;;;9.22;82.06
60642;BME280;46837;52.446;-1.930;2023-02-11T01:11:13;102043.50;;;9.20;82.03
60642;BME280;46837;52.446;-1.930;2023-02-11T01:12:09;102043.38;;;9.21;82.01
60642;BME280;46837;52.446;-1.930;2023-02-11T01:13:09;102040.52;;;9.20;82.07
60642;BME280;46837;52.446;-1.930;2023-02-11T01:14:09;102040.87;;;9.22;82.00
60642;BME280;46837;52.446;-1.930;2023-02-11T01:15:11;102039.41;;;9.20;82.01
60642;BME280;46837;52.446;-1.930;2023-02-11T01:16:09;102042.27;;;9.21;81.96
60642;BME280;46837;52.446;-1.930;2023-02-11T01:17:09;102039.45;;;9.21;82.02
60642;BME280;46837;52.446;-1.930;2023-02-11T01:18:09;102040.46;;;9.22;82.01
60642;BME280;46837;52.446;-1.930;2023-02-11T01:19:09;102042.36;;;9.20;82.02
60642;BME280;46837;52.446;-1.930;2023-02-11T01:20:13;102044.88;;;9.22;81.98
60642;BME280;46837;52.446;-1.930;2023-02-11T01:21:09;102043.38;;;9.24;81.92
60642;BME280;46837;52.446;-1.930;2023-02-11T01:22:09;102044.27;;;9.25;81.86
60642;BME280;46837;52.446;-1.930;2023-02-11T01:23:09;102044.61;;;9.24;81.83
60642;BME280;46837;52.446;-1.930;2023-02-11T01:24:09;102047.04;;;9.23;81.98
60642;BME280;46837;52.446;-1.930;2023-02-11T01:25:09;102046.56;;;9.22;82.00
60642;BME280;46837;52.446;-1.930;2023-02-11T01:26:09;102044.40;;;9.21;81.99
60642;BME280;46837;52.446;-1.930;2023-02-11T01:27:09;102040.78;;;9.23;81.99
60642;BME280;46837;52.446;-1.930;2023-02-11T01:28:19;102044.91;;;9.23;81.95
60642;BME280;46837;52.446;-1.930;2023-02-11T01:29:09;102041.00;;;9.17;82.04
60642;BME280;46837;52.446;-1.930;2023-02-11T01:30:10;102041.13;;;9.17;82.24
60642;BME280;46837;52.446;-1.930;2023-02-11T01:31:09;102041.20;;;9.18;82.07
60642;BME280;46837;52.446;-1.930;2023-02-11T01:32:09;102039.89;;;9.18;82.09
60642;BME280;46837;52.446;-1.930;2023-02-11T01:33:09;102040.37;;;9.19;82.07
60642;BME280;46837;52.446;-1.930;2023-02-11T01:34:09;102038.83;;;9.18;82.02
60642;BME280;46837;52.446;-1.930;2023-02-11T01:35:09;102038.27;;;9.20;82.08
60642;BME280;46837;52.446;-1.930;2023-02-11T01:36:10;102042.44;;;9.21;81.96
60642;BME280;46837;52.446;-1.930;2023-02-11T01:37:09;102038.00;;;9.15;82.19
60642;BME280;46837;52.446;-1.930;2023-02-11T01:39:09;102040.68;;;9.13;82.23
60642;BME280;46837;52.446;-1.930;2023-02-11T01:40:12;102041.68;;;9.11;82.20
60642;BME280;46837;52.446;-1.930;2023-02-11T01:41:10;102043.36;;;9.08;82.41
60642;BME280;46837;52.446;-1.930;2023-02-11T01:42:14;102045.35;;;9.08;82.46
60642;BME280;46837;52.446;-1.930;2023-02-11T01:43:10;102046.25;;;9.12;82.38
60642;BME280;46837;52.446;-1.930;2023-02-11T01:47:09;102046.30;;;9.08;82.45
60642;BME280;46837;52.446;-1.930;2023-02-11T01:48:10;102046.88;;;9.10;82.37
60642;BME280;46837;52.446;-1.930;2023-02-11T01:49:14;102046.11;;;9.10;82.30
60642;BME280;46837;52.446;-1.930;2023-02-11T01:50:09;102044.77;;;9.13;82.29
60642;BME280;46837;52.446;-1.930;2023-02-11T01:51:32;102047.65;;;9.12;82.25
60642;BME280;46837;52.446;-1.930;2023-02-11T01:52:16;102047.94;;;9.15;82.22
60642;BME280;46837;52.446;-1.930;2023-02-11T01:53:13;102048.60;;;9.15;82.16
60642;BME280;46837;52.446;-1.930;2023-02-11T01:54:15;102050.13;;;9.17;82.15
60642;BME280;46837;52.446;-1.930;2023-02-11T01:55:13;102051.45;;;9.20;82.05
60642;BME280;46837;52.446;-1.930;2023-02-11T01:56:13;102052.16;;;9.22;81.97
60642;BME280;46837;52.446;-1.930;2023-02-11T01:57:13;102048.56;;;9.22;81.88
60642;BME280;46837;52.446;-1.930;2023-02-11T01:58:09;102047.39;;;9.24;81.85
60642;BME280;46837;52.446;-1.930;2023-02-11T01:59:14;102046.86;;;9.20;81.94
60642;BME280;46837;52.446;-1.930;2023-02-11T02:01:10;102036.98;;;9.19;82.02
60642;BME280;46837;52.446;-1.930;2023-02-11T02:02:10;102035.80;;;9.17;81.99
60642;BME280;46837;52.446;-1.930;2023-02-11T02:03:13;102036.32;;;9.16;82.11
60642;BME280;46837;52.446;-1.930;2023-02-11T02:04:09;102040.71;;;9.10;82.22
60642;BME280;46837;52.446;-1.930;2023-02-11T02:06:17;102041.04;;;9.10;82.39
60642;BME280;46837;52.446;-1.930;2023-02-11T02:07:11;102042.37;;;9.12;82.23
60642;BME280;46837;52.446;-1.930;2023-02-11T02:10:13;102040.95;;;9.06;82.42
60642;BME280;46837;52.446;-1.930;2023-02-11T02:11:09;102042.12;;;9.04;82.47
60642;BME280;46837;52.446;-1.930;2023-02-11T02:12:09;102037.31;;;9.07;82.40
60642;BME280;46837;52.446;-1.930;2023-02-11T02:13:09;102033.17;;;9.04;82.37
60642;BME280;46837;52.446;-1.930;2023-02-11T02:14:09;102038.77;;;9.04;82.48
60642;BME280;46837;52.446;-1.930;2023-02-11T02:16:13;102036.44;;;9.00;82.60
60642;BME280;46837;52.446;-1.930;2023-02-11T02:17:18;102035.53;;;8.97;82.66
60642;BME280;46837;52.446;-1.930;2023-02-11T02:19:24;102033.73;;;8.96;82.74
60642;BME280;46837;52.446;-1.930;2023-02-11T02:20:21;102026.59;;;8.92;82.84
60642;BME280;46837;52.446;-1.930;2023-02-11T02:23:18;102021.65;;;8.87;83.15
60642;BME280;46837;52.446;-1.930;2023-02-11T02:27:18;102018.54;;;8.88;83.12
60642;BME280;46837;52.446;-1.930;2023-02-11T02:29:21;102016.18;;;8.90;83.18
60642;BME280;46837;52.446;-1.930;2023-02-11T02:31:31;102013.41;;;8.92;83.03
60642;BME280;46837;52.446;-1.930;2023-02-11T02:40:12;102021.91;;;8.98;82.92
60642;BME280;46837;52.446;-1.930;2023-02-11T02:41:13;102015.89;;;8.94;83.05
60642;BME280;46837;52.446;-1.930;2023-02-11T02:42:09;102017.02;;;8.95;82.99
60642;BME280;46837;52.446;-1.930;2023-02-11T02:43:09;102013.45;;;8.96;83.02
60642;BME280;46837;52.446;-1.930;2023-02-11T02:44:09;102009.36;;;8.97;82.98
60642;BME280;46837;52.446;-1.930;2023-02-11T02:45:09;102010.43;;;9.00;82.87
60642;BME280;46837;52.446;-1.930;2023-02-11T02:47:09;102006.35;;;8.99;82.83
60642;BME280;46837;52.446;-1.930;2023-02-11T02:49:14;102005.18;;;9.02;82.78
60642;BME280;46837;52.446;-1.930;2023-02-11T02:50:09;102004.00;;;9.04;82.61
60642;BME280;46837;52.446;-1.930;2023-02-11T02:56:21;102011.93;;;9.05;82.62
60642;BME280;46837;52.446;-1.930;2023-02-11T02:58:20;102012.94;;;9.10;82.37
60642;BME280;46837;52.446;-1.930;2023-02-11T03:02:17;102014.52;;;9.15;82.08
60642;BME280;46837;52.446;-1.930;2023-02-11T03:05:30;102011.05;;;9.14;82.19
60642;BME280;46837;52.446;-1.930;2023-02-11T03:06:12;102013.08;;;9.16;82.10
60642;BME280;46837;52.446;-1.930;2023-02-11T03:07:17;102009.15;;;9.16;82.04
60642;BME280;46837;52.446;-1.930;2023-02-11T03:09:22;102008.30;;;9.18;82.03
60642;BME280;46837;52.446;-1.930;2023-02-11T03:10:16;102007.38;;;9.17;82.05
60642;BME280;46837;52.446;-1.930;2023-02-11T03:11:09;102012.96;;;9.19;82.01
60642;BME280;46837;52.446;-1.930;2023-02-11T03:12:10;102009.99;;;9.18;81.98
60642;BME280;46837;52.446;-1.930;2023-02-11T03:13:09;102012.86;;;9.20;81.96
60642;BME280;46837;52.446;-1.930;2023-02-11T03:14:11;102011.12;;;9.22;81.83
60642;BME280;46837;52.446;-1.930;2023-02-11T03:15:09;102009.71;;;9.24;81.78
60642;BME280;46837;52.446;-1.930;2023-02-11T03:16:11;102007.41;;;9.25;81.69
60642;BME280;46837;52.446;-1.930;2023-02-11T03:17:09;102005.60;;;9.23;81.70
60642;BME280;46837;52.446;-1.930;2023-02-11T03:18:10;102005.70;;;9.24;81.75
60642;BME280;46837;52.446;-1.930;2023-02-11T03:20:10;102001.61;;;9.24;81.69
60642;BME280;46837;52.446;-1.930;2023-02-11T03:21:09;101997.09;;;9.22;81.79
60642;BME280;46837;52.446;-1.930;2023-02-11T03:22:12;101995.35;;;9.20;81.75
60642;BME280;46837;52.446;-1.930;2023-02-11T03:23:17;101987.96;;;9.19;81.81
60642;BME280;46837;52.446;-1.930;2023-02-11T03:24:14;101990.96;;;9.18;81.84
60642;BME280;46837;52.446;-1.930;2023-02-11T03:25:09;101990.58;;;9.19;81.82
60642;BME280;46837;52.446;-1.930;2023-02-11T03:26:14;101991.28;;;9.19;81.77
60642;BME280;46837;52.446;-1.930;2023-02-11T03:29:17;101993.84;;;9.17;81.83
60642;BME280;46837;52.446;-1.930;2023-02-11T03:30:17;101996.36;;;9.14;81.89
60642;BME280;46837;52.446;-1.930;2023-02-11T03:33:20;102007.61;;;9.11;82.06
60642;BME280;46837;52.446;-1.930;2023-02-11T03:34:13;102013.16;;;9.12;82.12
60642;BME280;46837;52.446;-1.930;2023-02-11T03:35:22;102014.11;;;9.15;81.99
60642;BME280;46837;52.446;-1.930;2023-02-11T03:36:16;102017.31;;;9.14;82.03
60642;BME280;46837;52.446;-1.930;2023-02-11T03:38:14;102020.34;;;9.18;81.99
60642;BME280;46837;52.446;-1.930;2023-02-11T03:39:09;102019.08;;;9.16;81.95
60642;BME280;46837;52.446;-1.930;2023-02-11T03:41:09;102016.66;;;9.17;81.97
60642;BME280;46837;52.446;-1.930;2023-02-11T03:42:09;102013.22;;;9.17;81.92
60642;BME280;46837;52.446;-1.930;2023-02-11T03:44:09;102006.09;;;9.19;81.86
60642;BME280;46837;52.446;-1.930;2023-02-11T03:45:11;102002.62;;;9.15;81.82
60642;BME280;46837;52.446;-1.930;2023-02-11T03:46:09;102002.84;;;9.14;82.01
60642;BME280;46837;52.446;-1.930;2023-02-11T03:47:09;101998.01;;;9.13;82.02
60642;BME280;46837;52.446;-1.930;2023-02-11T03:48:17;101997.77;;;9.17;81.97
60642;BME280;46837;52.446;-1.930;2023-02-11T03:49:12;101999.87;;;9.08;81.99
60642;BME280;46837;52.446;-1.930;2023-02-11T03:50:09;101993.16;;;9.05;82.23
60642;BME280;46837;52.446;-1.930;2023-02-11T03:51:09;101995.46;;;9.07;82.24
60642;BME280;46837;52.446;-1.930;2023-02-11T03:52:09;101999.66;;;9.05;82.35
60642;BME280;46837;52.446;-1.930;2023-02-11T03:53:09;101997.39;;;9.07;82.24
60642;BME280;46837;52.446;-1.930;2023-02-11T03:54:14;101998.70;;;9.04;82.28
60642;BME280;46837;52.446;-1.930;2023-02-11T03:55:12;102003.26;;;9.02;82.37
60642;BME280;46837;52.446;-1.930;2023-02-11T03:56:10;101999.00;;;9.02;82.41
60642;BME280;46837;52.446;-1.930;2023-02-11T03:57:09;101999.72;;;8.99;82.37
60642;BME280;46837;52.446;-1.930;2023-02-11T03:58:09;101999.21;;;8.97;82.45
60642;BME280;46837;52.446;-1.930;2023-02-11T03:59:09;101997.54;;;8.98;82.54
60642;BME280;46837;52.446;-1.930;2023-02-11T04:00:09;101995.26;;;8.95;82.63
60642;BME280;46837;52.446;-1.930;2023-02-11T04:01:10;101996.76;;;8.97;82.55
60642;BME280;46837;52.446;-1.930;2023-02-11T04:02:09;101996.68;;;8.98;82.46
60642;BME280;46837;52.446;-1.930;2023-02-11T04:03:09;101996.96;;;8.97;82.50
60642;BME280;46837;52.446;-1.930;2023-02-11T04:04:09;102000.35;;;8.98;82.46
60642;BME280;46837;52.446;-1.930;2023-02-11T04:05:10;102002.05;;;8.99;82.41
60642;BME280;46837;52.446;-1.930;2023-02-11T04:06:09;102004.34;;;9.00;82.37
60642;BME280;46837;52.446;-1.930;2023-02-11T04:07:10;102005.77;;;8.99;82.36
60642;BME280;46837;52.446;-1.930;2023-02-11T04:08:09;102006.99;;;9.01;82.27
60642;BME280;46837;52.446;-1.930;2023-02-11T04:09:09;102007.49;;;9.03;82.20
60642;BME280;46837;52.446;-1.930;2023-02-11T04:10:10;102009.05;;;9.02;82.13
60642;BME280;46837;52.446;-1.930;2023-02-11T04:11:09;102011.09;;;9.00;82.22
60642;BME280;46837;52.446;-1.930;2023-02-11T04:12:09;102012.77;;;8.99;82.35
60642;BME280;46837;52.446;-1.930;2023-02-11T04:13:09;102013.01;;;8.96;82.39
60642;BME280;46837;52.446;-1.930;2023-02-11T04:14:09;102012.83;;;8.97;82.40
60642;BME280;46837;52.446;-1.930;2023-02-11T04:15:09;102014.62;;;8.98;82.35
60642;BME280;46837;52.446;-1.930;2023-02-11T04:16:09;102019.39;;;8.99;82.29
60642;BME280;46837;52.446;-1.930;2023-02-11T04:17:09;102016.98;;;8.99;82.30
60642;BME280;46837;52.446;-1.930;2023-02-11T04:18:09;102015.87;;;9.00;82.30
60642;BME280;46837;52.446;-1.930;2023-02-11T04:19:09;102018.09;;;8.99;82.30
60642;BME280;46837;52.446;-1.930;2023-02-11T04:20:09;102016.36;;;8.96;82.32
60642;BME280;46837;52.446;-1.930;2023-02-11T04:21:09;102016.93;;;8.93;82.41
60642;BME280;46837;52.446;-1.930;2023-02-11T04:22:09;102018.77;;;8.93;82.52
60642;BME280;46837;52.446;-1.930;2023-02-11T04:23:09;102019.63;;;8.95;82.49
60642;BME280;46837;52.446;-1.930;2023-02-11T04:24:09;102017.76;;;8.95;82.44
60642;BME280;46837;52.446;-1.930;2023-02-11T04:25:09;102017.25;;;8.97;82.39
60642;BME280;46837;52.446;-1.930;2023-02-11T04:26:09;102017.59;;;8.96;82.43
60642;BME280;46837;52.446;-1.930;2023-02-11T04:27:09;102017.56;;;8.91;82.58
60642;BME280;46837;52.446;-1.930;2023-02-11T04:28:09;102011.54;;;8.92;82.77
60642;BME280;46837;52.446;-1.930;2023-02-11T04:29:09;102010.02;;;8.92;82.57
60642;BME280;46837;52.446;-1.930;2023-02-11T04:30:09;102006.20;;;8.93;82.60
60642;BME280;46837;52.446;-1.930;2023-02-11T04:31:09;102009.39;;;8.94;82.62
60642;BME280;46837;52.446;-1.930;2023-02-11T04:32:09;102012.63;;;8.97;82.56
60642;BME280;46837;52.446;-1.930;2023-02-11T04:33:09;102015.17;;;8.97;82.51
60642;BME280;46837;52.446;-1.930;2023-02-11T04:34:09;102018.24;;;8.92;82.57
60642;BME280;46837;52.446;-1.930;2023-02-11T04:35:09;102022.43;;;8.94;82.60
60642;BME280;46837;52.446;-1.930;2023-02-11T04:36:09;102019.30;;;8.92;82.58
60642;BME280;46837;52.446;-1.930;2023-02-11T04:37:09;102026.74;;;8.93;82.61
60642;BME280;46837;52.446;-1.930;2023-02-11T04:38:09;102027.22;;;8.94;82.53
60642;BME280;46837;52.446;-1.930;2023-02-11T04:39:09;102029.28;;;8.96;82.54
60642;BME280;46837;52.446;-1.930;2023-02-11T04:40:09;102028.99;;;8.97;82.46
60642;BME280;46837;52.446;-1.930;2023-02-11T04:41:09;102029.81;;;9.00;82.36
60642;BME280;46837;52.446;-1.930;2023-02-11T04:42:09;102030.69;;;9.02;82.27
60642;BME280;46837;52.446;-1.930;2023-02-11T04:43:09;102026.65;;;9.02;82.19
60642;BME280;46837;52.446;-1.930;2023-02-11T04:44:09;102022.42;;;9.03;82.23
60642;BME280;46837;52.446;-1.930;2023-02-11T04:45:09;102026.45;;;9.01;82.20
60642;BME280;46837;52.446;-1.930;2023-02-11T04:46:09;102025.09;;;9.02;82.20
60642;BME280;46837;52.446;-1.930;2023-02-11T04:47:09;102025.25;;;9.02;82.17
60642;BME280;46837;52.446;-1.930;2023-02-11T04:48:09;102023.88;;;8.96;82.25
60642;BME280;46837;52.446;-1.930;2023-02-11T04:49:11;102026.00;;;8.93;82.45
60642;BME280;46837;52.446;-1.930;2023-02-11T04:50:09;102030.22;;;8.96;82.48
60642;BME280;46837;52.446;-1.930;2023-02-11T04:51:09;102034.03;;;8.95;82.35
60642;BME280;46837;52.446;-1.930;2023-02-11T04:52:09;102035.48;;;8.94;82.38
60642;BME280;46837;52.446;-1.930;2023-02-11T04:53:09;102038.85;;;8.96;82.42
60642;BME280;46837;52.446;-1.930;2023-02-11T04:54:09;102041.76;;;8.99;82.33
60642;BME280;46837;52.446;-1.930;2023-02-11T04:55:09;102047.83;;;8.98;82.18
60642;BME280;46837;52.446;-1.930;2023-02-11T04:56:09;102047.07;;;9.00;82.23
60642;BME280;46837;52.446;-1.930;2023-02-11T04:57:09;102052.44;;;9.03;82.12
60642;BME280;46837;52.446;-1.930;2023-02-11T04:58:09;102056.72;;;9.01;82.06
60642;BME280;46837;52.446;-1.930;2023-02-11T04:59:10;102059.76;;;9.03;82.10
60642;BME280;46837;52.446;-1.930;2023-02-11T05:00:09;102058.69;;;9.04;82.06
60642;BME280;46837;52.446;-1.930;2023-02-11T05:01:10;102063.81;;;9.04;82.06
60642;BME280;46837;52.446;-1.930;2023-02-11T05:02:09;102060.71;;;9.06;82.05
60642;BME280;46837;52.446;-1.930;2023-02-11T05:03:09;102059.76;;;9.07;81.96
60642;BME280;46837;52.446;-1.930;2023-02-11T05:04:09;102062.37;;;9.08;81.90
60642;BME280;46837;52.446;-1.930;2023-02-11T05:05:09;102060.26;;;9.11;81.85
60642;BME280;46837;52.446;-1.930;2023-02-11T05:06:09;102059.52;;;9.07;81.85
60642;BME280;46837;52.446;-1.930;2023-02-11T05:07:09;102057.01;;;9.08;81.93
60642;BME280;46837;52.446;-1.930;2023-02-11T05:08:11;102057.72;;;9.11;81.85
60642;BME280;46837;52.446;-1.930;2023-02-11T05:09:09;102054.73;;;9.11;81.75
60642;BME280;46837;52.446;-1.930;2023-02-11T05:10:09;102053.59;;;9.10;81.74
60642;BME280;46837;52.446;-1.930;2023-02-11T05:11:13;102054.24;;;9.11;81.85
60642;BME280;46837;52.446;-1.930;2023-02-11T05:12:09;102054.93;;;9.08;81.75
60642;BME280;46837;52.446;-1.930;2023-02-11T05:13:09;102050.98;;;9.06;81.96
60642;BME280;46837;52.446;-1.930;2023-02-11T05:14:09;102058.70;;;9.03;82.01
60642;BME280;46837;52.446;-1.930;2023-02-11T05:15:09;102055.21;;;9.04;82.05
60642;BME280;46837;52.446;-1.930;2023-02-11T05:16:09;102056.28;;;9.04;81.92
60642;BME280;46837;52.446;-1.930;2023-02-11T05:17:09;102055.32;;;9.05;81.91
60642;BME280;46837;52.446;-1.930;2023-02-11T05:18:09;102060.18;;;9.06;81.83
60642;BME280;46837;52.446;-1.930;2023-02-11T05:19:09;102061.16;;;9.06;81.83
60642;BME280;46837;52.446;-1.930;2023-02-11T05:20:09;102060.32;;;9.00;81.98
60642;BME280;46837;52.446;-1.930;2023-02-11T05:21:13;102060.04;;;9.01;82.04
60642;BME280;46837;52.446;-1.930;2023-02-11T05:22:09;102055.25;;;9.00;82.03
60642;BME280;46837;52.446;-1.930;2023-02-11T05:23:09;102055.08;;;9.01;81.97
60642;BME280;46837;52.446;-1.930;2023-02-11T05:24:09;102055.50;;;8.99;82.04
60642;BME280;46837;52.446;-1.930;2023-02-11T05:25:09;102057.55;;;9.00;82.05
60642;BME280;46837;52.446;-1.930;2023-02-11T05:26:09;102057.33;;;9.01;81.97
60642;BME280;46837;52.446;-1.930;2023-02-11T05:27:09;102054.32;;;9.03;81.96
60642;BME280;46837;52.446;-1.930;2023-02-11T05:28:09;102058.37;;;9.03;81.91
60642;BME280;46837;52.446;-1.930;2023-02-11T05:29:09;102060.13;;;9.03;81.91
60642;BME280;46837;52.446;-1.930;2023-02-11T05:30:09;102054.56;;;9.04;81.90
60642;BME280;46837;52.446;-1.930;2023-02-11T05:31:09;102057.70;;;9.01;82.01
60642;BME280;46837;52.446;-1.930;2023-02-11T05:32:09;102058.89;;;9.01;81.97
60642;BME280;46837;52.446;-1.930;2023-02-11T05:33:09;102062.59;;;9.02;81.94
60642;BME280;46837;52.446;-1.930;2023-02-11T05:34:09;102066.21;;;9.05;81.80
60642;BME280;46837;52.446;-1.930;2023-02-11T05:35:09;102065.95;;;9.06;81.72
60642;BME280;46837;52.446;-1.930;2023-02-11T05:36:09;102069.46;;;9.06;81.62
60642;BME280;46837;52.446;-1.930;2023-02-11T05:37:09;102074.68;;;9.08;81.65
60642;BME280;46837;52.446;-1.930;2023-02-11T05:38:09;102073.88;;;9.11;81.57
60642;BME280;46837;52.446;-1.930;2023-02-11T05:39:09;102075.46;;;9.12;81.46
60642;BME280;46837;52.446;-1.930;2023-02-11T05:40:09;102074.88;;;9.09;81.46
60642;BME280;46837;52.446;-1.930;2023-02-11T05:41:09;102074.38;;;9.09;81.54
60642;BME280;46837;52.446;-1.930;2023-02-11T05:42:09;102070.86;;;9.10;81.50
60642;BME280;46837;52.446;-1.930;2023-02-11T05:43:09;102073.76;;;9.10;81.49
60642;BME280;46837;52.446;-1.930;2023-02-11T05:44:09;102071.42;;;9.11;81.46
60642;BME280;46837;52.446;-1.930;2023-02-11T05:45:09;102072.80;;;9.09;81.43
60642;BME280;46837;52.446;-1.930;2023-02-11T05:46:09;102073.00;;;9.05;81.60
60642;BME280;46837;52.446;-1.930;2023-02-11T05:47:10;102072.68;;;9.07;81.67
60642;BME280;46837;52.446;-1.930;2023-02-11T05:48:09;102072.30;;;9.09;81.55
60642;BME280;46837;52.446;-1.930;2023-02-11T05:49:09;102072.95;;;9.09;81.50
60642;BME280;46837;52.446;-1.930;2023-02-11T05:50:09;102070.32;;;9.07;81.53
60642;BME280;46837;52.446;-1.930;2023-02-11T05:51:09;102070.43;;;9.04;81.62
60642;BME280;46837;52.446;-1.930;2023-02-11T05:52:09;102068.25;;;9.05;81.63
60642;BME280;46837;52.446;-1.930;2023-02-11T05:53:09;102068.50;;;9.05;81.59
60642;BME280;46837;52.446;-1.930;2023-02-11T05:54:09;102066.94;;;9.05;81.57
60642;BME280;46837;52.446;-1.930;2023-02-11T05:55:09;102066.45;;;9.05;81.54
60642;BME280;46837;52.446;-1.930;2023-02-11T05:56:09;102065.79;;;9.05;81.54
60642;BME280;46837;52.446;-1.930;2023-02-11T05:57:09;102065.73;;;9.07;81.45
60642;BME280;46837;52.446;-1.930;2023-02-11T05:58:09;102064.83;;;9.07;81.39
60642;BME280;46837;52.446;-1.930;2023-02-11T05:59:09;102064.13;;;9.08;81.40
60642;BME280;46837;52.446;-1.930;2023-02-11T06:00:09;102063.86;;;9.06;81.41
60642;BME280;46837;52.446;-1.930;2023-02-11T06:01:09;102066.15;;;9.06;81.40